Time;durP1;ratioP1;P1;durP2;ratioP2;P2;SDS_P1;SDS_P2;PMS_P1;PMS_P2;Temp;Humidity;BMP_temperature;BMP_pressure;BME280_temperature;BME280_humidity;BME280_pressure;Samples;Min_cycle;Max_cycle;Signal;HPM_P1;HPM_P2
2022/05/02 00:01:36;;;;;;;;;;;;;;;12.72;46.21;100986.22;4979479;28;7408;-73
2022/05/02 00:04:02;;;;;;;;;;;;;;;12.70;46.94;100987.84;4940867;28;6964;-73
2022/05/02 00:06:28;;;;;;;;;;;;;;;12.64;47.35;100981.56;4976641;28;7026;-73
2022/05/02 00:08:53;;;;;;;;;;;;;;;12.61;47.03;100978.84;4977227;28;6796;-73
2022/05/02 00:11:19;;;;;;;;;;;;;;;12.57;46.94;100978.63;4983170;28;6779;-73
2022/05/02 00:13:45;;;;;;;;;;;;;;;12.54;47.27;100975.91;4982637;28;6867;-73
2022/05/02 00:16:10;;;;;;;;;;;;;;;12.50;47.47;100969.75;4981664;28;7698;-73
2022/05/02 00:18:36;;;;;;;;;;;;;;;12.47;46.78;100970.47;4982871;28;6804;-73
2022/05/02 00:21:02;;;;;;;;;;;;;;;12.48;47.91;100971.34;4983263;28;7852;-73
2022/05/02 00:23:28;;;;;;;;;;;;;;;12.45;47.57;100966.94;4980607;28;7200;-73
2022/05/02 00:25:54;;;;;;;;;;;;;;;12.44;47.66;100969.41;4984792;28;7364;-73
2022/05/02 00:28:20;;;;;;;;;;;;;;;12.40;47.69;100972.66;4983461;28;6874;-73
2022/05/02 00:30:45;;;;;;;;;;;;;;;12.36;47.81;100962.25;4983691;28;6780;-73
2022/05/02 00:33:11;;;;;;;;;;;;;;;12.33;47.82;100962.06;4982250;28;7883;-73
2022/05/02 00:35:37;;;;;;;;;;;;;;;12.30;48.18;100959.34;4977428;28;7401;-73
2022/05/02 00:38:03;;;;;;;;;;;;;;;12.27;48.18;100956.63;4982268;28;7225;-73
2022/05/02 00:40:29;;;;;;;;;;;;;;;12.22;48.73;100958.97;4982379;28;6788;-73
2022/05/02 00:42:54;;;;;;;;;;;;;;;12.20;48.79;100954.56;4983353;28;6791;-73
2022/05/02 00:45:21;;;;;;;;;;;;;;;12.15;48.38;100951.75;4978066;28;6784;-73
2022/05/02 00:47:52;;;;;;;;;;;;;;;12.13;48.57;100952.47;5000145;28;6979;-73
2022/05/02 00:50:40;;;;;;;;;;;;;;;12.09;48.39;100956.56;4965034;28;7908;-73
2022/05/02 00:53:09;;;;;;;;;;;;;;;12.06;48.41;100949.59;4965608;28;6939;-73
2022/05/02 00:55:37;;;;;;;;;;;;;;;12.03;49.21;100948.56;4968248;28;6999;-73
2022/05/02 00:58:04;;;;;;;;;;;;;;;12.03;48.79;100946.00;4982800;28;7027;-73
2022/05/02 01:00:33;;;;;;;;;;;;;;;12.01;49.19;100942.41;4963711;28;6796;-73
2022/05/02 01:03:01;;;;;;;;;;;;;;;12.00;49.34;100938.09;4981589;28;8164;-74
2022/05/02 01:05:27;;;;;;;;;;;;;;;11.96;48.71;100942.19;4962944;28;7028;-73
2022/05/02 01:07:53;;;;;;;;;;;;;;;11.94;48.95;100948.94;4967733;28;6804;-73
2022/05/02 01:10:19;;;;;;;;;;;;;;;11.89;49.13;100938.44;4985550;28;7179;-73
2022/05/02 01:12:48;;;;;;;;;;;;;;;11.86;49.29;100939.94;4981805;28;6815;-73
2022/05/02 01:15:16;;;;;;;;;;;;;;;11.82;49.57;100941.47;4954146;28;7119;-73
2022/05/02 01:17:43;;;;;;;;;;;;;;;11.79;49.75;100931.94;4976760;28;6887;-73
2022/05/02 01:20:10;;;;;;;;;;;;;;;11.77;49.73;100936.09;4982286;28;6819;-73
2022/05/02 01:22:36;;;;;;;;;;;;;;;11.75;49.56;100931.72;4978961;28;8198;-73
2022/05/02 01:25:02;;;;;;;;;;;;;;;11.73;50.09;100933.28;4982023;28;6926;-73
2022/05/02 01:27:28;;;;;;;;;;;;;;;11.70;49.77;100934.03;4975904;28;6808;-73
2022/05/02 01:29:54;;;;;;;;;;;;;;;11.67;49.90;100931.28;4976062;28;7167;-73
2022/05/02 01:32:19;;;;;;;;;;;;;;;11.64;50.19;100933.72;4972405;28;6807;-73
2022/05/02 01:34:45;;;;;;;;;;;;;;;11.58;49.95;100928.25;4976795;28;6871;-73
2022/05/02 01:37:13;;;;;;;;;;;;;;;11.51;50.14;100930.50;4974972;28;6823;-74
2022/05/02 01:39:39;;;;;;;;;;;;;;;11.46;50.13;100926.81;4962230;28;7158;-74
2022/05/02 01:42:11;;;;;;;;;;;;;;;11.41;50.14;100928.25;4980405;28;6963;-74
2022/05/02 01:44:39;;;;;;;;;;;;;;;11.35;50.13;100933.06;4980850;28;6820;-74
2022/05/02 01:47:08;;;;;;;;;;;;;;;11.30;50.16;100934.47;4990702;28;6796;-74
2022/05/02 01:49:34;;;;;;;;;;;;;;;11.26;50.29;100920.63;4966969;28;7064;-74
2022/05/02 01:51:59;;;;;;;;;;;;;;;11.20;50.73;100918.63;4981466;28;7560;-74
2022/05/02 01:54:26;;;;;;;;;;;;;;;11.17;50.37;100922.72;4981924;28;6783;-74
2022/05/02 01:56:53;;;;;;;;;;;;;;;11.12;50.59;100914.75;4974405;28;6970;-74
2022/05/02 01:59:18;;;;;;;;;;;;;;;11.08;50.68;100910.25;4978571;28;6979;-74
2022/05/02 02:01:44;;;;;;;;;;;;;;;11.05;51.01;100920.34;4975308;28;6945;-74
2022/05/02 02:06:54;;;;;;;;;;;;;;;10.98;51.47;100914.88;4990464;28;6827;-74
2022/05/02 02:09:20;;;;;;;;;;;;;;;10.96;51.41;100921.59;4995253;28;9843;-74
2022/05/02 02:11:46;;;;;;;;;;;;;;;10.95;51.68;100913.81;4985270;28;6803;-74
2022/05/02 02:14:12;;;;;;;;;;;;;;;10.95;51.33;100906.13;4982122;28;6787;-74
2022/05/02 02:16:37;;;;;;;;;;;;;;;10.95;51.11;100906.13;4962767;28;6843;-74
2022/05/02 02:19:04;;;;;;;;;;;;;;;10.94;50.79;100905.25;4964948;28;6895;-74
2022/05/02 02:21:31;;;;;;;;;;;;;;;10.94;51.35;100904.38;4981170;28;6795;-74
2022/05/02 02:23:57;;;;;;;;;;;;;;;10.95;51.72;100907.03;4979697;28;7071;-74
2022/05/02 02:26:23;;;;;;;;;;;;;;;10.94;51.70;100907.81;4983202;28;6888;-74
2022/05/02 02:28:49;;;;;;;;;;;;;;;10.93;51.86;100905.16;4978224;28;7126;-74
2022/05/02 02:31:14;;;;;;;;;;;;;;;10.94;51.75;100909.50;4995930;28;6788;-74
2022/05/02 02:33:40;;;;;;;;;;;;;;;10.93;51.79;100905.16;4984250;28;6831;-74
2022/05/02 02:36:06;;;;;;;;;;;;;;;10.94;52.19;100907.81;4980018;28;7043;-74
2022/05/02 02:38:32;;;;;;;;;;;;;;;10.97;51.76;100894.28;4956765;28;6781;-74
2022/05/02 02:40:57;;;;;;;;;;;;;;;11.00;51.56;100904.72;4979356;28;6783;-74
2022/05/02 02:43:23;;;;;;;;;;;;;;;11.02;52.15;100899.66;4966562;28;7850;-74
2022/05/02 02:45:49;;;;;;;;;;;;;;;11.03;51.88;100904.88;4978763;28;6882;-74
2022/05/02 02:48:14;;;;;;;;;;;;;;;11.02;51.66;100895.41;4982693;28;6787;-74
2022/05/02 02:50:40;;;;;;;;;;;;;;;11.02;51.46;100897.09;4979403;28;6887;-74
2022/05/02 02:53:06;;;;;;;;;;;;;;;11.03;52.04;100893.75;4963359;28;6930;-74
2022/05/02 02:55:32;;;;;;;;;;;;;;;11.02;51.98;100895.41;4977528;28;6784;-74
2022/05/02 02:57:58;;;;;;;;;;;;;;;11.01;52.21;100895.31;4983585;28;6776;-74
2022/05/02 03:00:24;;;;;;;;;;;;;;;11.00;51.74;100889.31;4978638;28;6796;-74
2022/05/02 03:02:51;;;;;;;;;;;;;;;10.98;51.90;100886.66;4985273;28;6860;-74
2022/05/02 03:08:02;;;;;;;;;;;;;;;10.91;51.62;100887.16;4983593;28;7060;-74
2022/05/02 03:10:28;;;;;;;;;;;;;;;10.87;52.02;100887.75;4961015;28;6996;-74
2022/05/02 03:12:55;;;;;;;;;;;;;;;10.85;52.15;100884.25;4985661;28;6812;-74
2022/05/02 03:15:21;;;;;;;;;;;;;;;10.83;52.23;100890.97;4983043;28;6892;-74
2022/05/02 03:17:47;;;;;;;;;;;;;;;10.81;51.73;100892.53;4985507;28;7031;-74
2022/05/02 03:20:13;;;;;;;;;;;;;;;10.76;51.87;100879.47;4985347;28;7208;-75
2022/05/02 03:22:39;;;;;;;;;;;;;;;10.73;52.54;100883.56;4982009;28;6780;-75
2022/05/02 03:25:05;;;;;;;;;;;;;;;10.70;52.51;100891.97;4983381;28;7058;-73
2022/05/02 03:27:31;;;;;;;;;;;;;;;10.67;52.04;100891.78;4979943;28;6811;-74
2022/05/02 03:29:57;;;;;;;;;;;;;;;10.64;52.60;100879.72;4979766;28;6895;-74
2022/05/02 03:32:22;;;;;;;;;;;;;;;10.62;52.83;100885.53;4964264;28;7883;-74
2022/05/02 03:34:48;;;;;;;;;;;;;;;10.60;52.59;100880.31;4986206;28;6883;-74
2022/05/02 03:37:14;;;;;;;;;;;;;;;10.58;52.13;100876.78;4984789;28;6800;-74
2022/05/02 03:39:39;;;;;;;;;;;;;;;10.56;52.22;100875.81;4996627;28;6800;-74
2022/05/02 03:42:06;;;;;;;;;;;;;;;10.54;52.46;100882.56;4983341;28;6847;-74
2022/05/02 03:44:31;;;;;;;;;;;;;;;10.53;53.08;100891.03;4983637;28;6819;-74
2022/05/02 03:46:57;;;;;;;;;;;;;;;10.52;52.45;100890.16;4986427;28;6859;-74
2022/05/02 03:49:23;;;;;;;;;;;;;;;10.50;52.51;100888.28;4980225;28;6799;-74
2022/05/02 03:51:48;;;;;;;;;;;;;;;10.46;52.77;100882.09;4983472;28;6796;-74
2022/05/02 03:54:14;;;;;;;;;;;;;;;10.45;52.93;100885.47;4986066;28;6799;-74
2022/05/02 03:56:40;;;;;;;;;;;;;;;10.41;52.98;100881.84;4984496;28;6899;-74
2022/05/02 03:59:05;;;;;;;;;;;;;;;10.37;52.91;100879.88;4986116;28;6803;-74
2022/05/02 04:01:36;;;;;;;;;;;;;;;10.34;52.56;100879.72;4981042;28;6807;-74
2022/05/02 04:04:02;;;;;;;;;;;;;;;10.31;53.42;100883.78;4985764;28;7064;-74
2022/05/02 04:06:28;;;;;;;;;;;;;;;10.28;53.36;100887.06;4979824;28;7349;-74
2022/05/02 04:08:54;;;;;;;;;;;;;;;10.26;52.83;100888.66;4964484;28;6866;-74
2022/05/02 04:11:20;;;;;;;;;;;;;;;10.24;52.89;100880.00;4985622;28;6823;-74
2022/05/02 04:13:45;;;;;;;;;;;;;;;10.23;53.65;100884.22;4980586;28;6872;-75
2022/05/02 04:16:11;;;;;;;;;;;;;;;10.24;53.74;100883.44;4980254;28;6882;-73
2022/05/02 04:18:37;;;;;;;;;;;;;;;10.24;53.53;100882.56;4975596;28;6808;-73
2022/05/02 04:21:02;;;;;;;;;;;;;;;10.25;54.04;100884.31;4978205;28;9777;-73
2022/05/02 04:23:28;;;;;;;;;;;;;;;10.25;53.58;100881.75;4980884;28;6995;-73
2022/05/02 04:25:55;;;;;;;;;;;;;;;10.28;53.13;100885.38;4984393;28;7167;-73
2022/05/02 04:28:20;;;;;;;;;;;;;;;10.28;53.04;100882.81;4965568;28;6965;-73
2022/05/02 04:30:46;;;;;;;;;;;;;;;10.27;53.37;100888.72;4964457;28;6807;-73
2022/05/02 04:33:12;;;;;;;;;;;;;;;10.29;53.56;100891.38;4986085;28;6807;-73
2022/05/02 04:35:38;;;;;;;;;;;;;;;10.27;53.36;100886.16;4966967;28;7326;-73
2022/05/02 04:38:04;;;;;;;;;;;;;;;10.29;53.33;100886.25;4981738;28;6816;-73
2022/05/02 04:40:30;;;;;;;;;;;;;;;10.28;53.47;100890.50;4984250;28;6871;-74
2022/05/02 04:42:55;;;;;;;;;;;;;;;10.28;53.26;100892.19;4983064;28;6791;-74
2022/05/02 04:45:21;;;;;;;;;;;;;;;10.26;53.75;100886.09;4983779;28;6795;-74
2022/05/02 04:47:46;;;;;;;;;;;;;;;10.26;53.32;100891.22;4982888;28;7220;-74
2022/05/02 04:50:12;;;;;;;;;;;;;;;10.26;53.10;100893.78;4981917;28;6804;-74
2022/05/02 04:52:38;;;;;;;;;;;;;;;10.28;53.39;100895.63;4984998;28;6906;-74
2022/05/02 04:55:04;;;;;;;;;;;;;;;10.30;54.33;100888.00;4983058;28;6816;-74
2022/05/02 04:57:30;;;;;;;;;;;;;;;10.33;54.12;100889.88;4984217;28;6804;-74
2022/05/02 04:59:55;;;;;;;;;;;;;;;10.35;54.36;100886.63;4985226;28;7222;-74
2022/05/02 05:02:21;;;;;;;;;;;;;;;10.38;54.43;100891.91;4983806;28;6874;-74
2022/05/02 05:04:47;;;;;;;;;;;;;;;10.41;54.66;100893.75;4984955;28;6811;-74
2022/05/02 05:07:13;;;;;;;;;;;;;;;10.46;54.15;100888.94;4983696;28;6878;-74
2022/05/02 05:09:38;;;;;;;;;;;;;;;10.53;54.65;100886.78;4986728;28;7283;-74
2022/05/02 05:12:26;;;;;;;;;;;;;;;10.62;54.54;100881.31;4982031;28;6800;-74
2022/05/02 05:18:02;;;;;;;;;;;;;;;10.76;54.34;100892.28;4981068;28;6908;-74
2022/05/02 05:21:07;;;;;;;;;;;;;;;10.84;54.33;100892.72;4980445;28;7038;-74
2022/05/02 05:23:41;;;;;;;;;;;;;;;10.94;54.82;100896.66;4984117;28;7947;-74
2022/05/02 05:26:35;;;;;;;;;;;;;;;11.08;55.05;100903.44;4969356;28;7169;-74
2022/05/02 05:29:09;;;;;;;;;;;;;;;11.21;54.86;100891.25;4985008;28;6900;-74
2022/05/02 05:31:57;;;;;;;;;;;;;;;11.33;54.42;100891.03;4985124;28;6899;-74
2022/05/02 05:34:46;;;;;;;;;;;;;;;11.43;54.05;100892.38;4984085;28;6823;-74
2022/05/02 05:37:30;;;;;;;;;;;;;;;11.51;54.39;100893.69;4982192;28;6896;-74
2022/05/02 05:40:24;;;;;;;;;;;;;;;11.61;54.23;100895.91;4986168;28;7189;-74
2022/05/02 05:42:58;;;;;;;;;;;;;;;11.71;54.19;100892.16;4984408;28;6808;-74
2022/05/02 05:46:23;;;;;;;;;;;;;;;11.85;53.82;100898.00;4984464;28;7081;-74
2022/05/02 05:48:57;;;;;;;;;;;;;;;11.99;53.93;100892.66;4976489;28;6820;-74
2022/05/02 05:51:40;;;;;;;;;;;;;;;12.13;53.53;100891.72;4983103;28;6824;-73
2022/05/02 05:55:03;;;;;;;;;;;;;;;12.33;53.61;100895.22;4976674;28;6820;-73
2022/05/02 05:57:46;;;;;;;;;;;;;;;12.48;53.76;100895.09;4982081;28;6808;-73
2022/05/02 06:00:15;;;;;;;;;;;;;;;12.63;53.34;100902.66;4982727;28;6896;-73
2022/05/02 06:03:21;;;;;;;;;;;;;;;12.81;53.73;100901.75;4984183;28;6876;-73
2022/05/02 06:05:48;;;;;;;;;;;;;;;12.99;52.72;100894.03;4984766;28;6823;-73
2022/05/02 06:08:22;;;;;;;;;;;;;;;13.18;52.59;100897.44;4981897;28;6841;-73
2022/05/02 06:10:51;;;;;;;;;;;;;;;13.32;52.86;100895.47;4984504;28;7019;-73
2022/05/02 06:13:19;;;;;;;;;;;;;;;13.50;52.64;100892.00;4979121;28;6886;-74
2022/05/02 06:18:38;;;;;;;;;;;;;;;13.85;52.21;100901.22;4981095;28;6824;-74
2022/05/02 06:21:08;;;;;;;;;;;;;;;13.99;51.26;100906.97;4980933;28;6796;-74
2022/05/02 06:23:42;;;;;;;;;;;;;;;14.14;50.75;100899.00;4967046;28;8820;-74
2022/05/02 06:26:10;;;;;;;;;;;;;;;14.28;50.88;100903.88;4965616;28;6902;-74
2022/05/02 06:28:46;;;;;;;;;;;;;;;14.41;50.44;100900.09;4982188;28;6980;-74
2022/05/02 06:31:24;;;;;;;;;;;;;;;14.54;50.11;100894.59;4983586;28;6820;-74
2022/05/02 06:33:51;;;;;;;;;;;;;;;14.67;50.40;100892.47;4981430;28;6815;-74
2022/05/02 06:37:05;;;;;;;;;;;;;;;14.78;49.34;100887.78;4964781;28;6996;-74
2022/05/02 06:39:55;;;;;;;;;;;;;;;14.84;49.38;100888.03;4988059;28;7378;-74
2022/05/02 06:42:45;;;;;;;;;;;;;;;14.96;49.87;100888.47;4984980;28;6811;-74
2022/05/02 06:46:00;;;;;;;;;;;;;;;15.10;49.03;100889.00;4984587;28;6952;-74
2022/05/02 06:48:36;;;;;;;;;;;;;;;15.16;49.26;100890.03;4988572;28;7899;-74
2022/05/02 06:51:14;;;;;;;;;;;;;;;15.21;48.43;100893.69;4985610;28;6977;-74
2022/05/02 06:54:12;;;;;;;;;;;;;;;15.26;48.83;100895.59;4986916;28;6808;-74
2022/05/02 06:57:07;;;;;;;;;;;;;;;15.31;48.33;100900.94;4982093;28;6808;-74
2022/05/02 06:59:43;;;;;;;;;;;;;;;15.41;48.05;100892.69;4986983;28;6808;-74
2022/05/02 07:02:37;;;;;;;;;;;;;;;15.54;48.57;100893.13;4970491;28;7006;-74
2022/05/02 07:05:22;;;;;;;;;;;;;;;15.68;48.34;100896.19;4987067;28;7525;-74
2022/05/02 07:08:05;;;;;;;;;;;;;;;15.81;47.81;100898.41;4967389;28;7202;-74
2022/05/02 07:10:38;;;;;;;;;;;;;;;15.87;47.93;100896.84;4987779;28;8622;-74
2022/05/02 07:13:32;;;;;;;;;;;;;;;15.90;47.53;100903.03;4978621;28;6820;-74
2022/05/02 07:16:20;;;;;;;;;;;;;;;15.93;47.07;100895.41;4986436;28;6895;-74
2022/05/02 07:19:17;;;;;;;;;;;;;;;16.01;47.57;100900.81;4982523;28;6823;-74
2022/05/02 07:22:01;;;;;;;;;;;;;;;16.11;47.31;100902.00;4950107;28;7208;-74
2022/05/02 07:24:59;;;;;;;;;;;;;;;16.24;47.36;100899.00;4987798;28;8094;-74
2022/05/02 07:28:13;;;;;;;;;;;;;;;16.43;46.76;100898.72;4987549;28;7574;-74
2022/05/02 07:30:39;;;;;;;;;;;;;;;16.55;46.94;100895.63;4985097;28;7432;-74
2022/05/02 07:33:10;;;;;;;;;;;;;;;16.66;46.13;100897.75;4983481;28;6984;-74
2022/05/02 07:35:37;;;;;;;;;;;;;;;16.77;46.41;100900.63;4985322;28;7019;-74
2022/05/02 07:38:04;;;;;;;;;;;;;;;16.88;46.26;100900.06;4985622;28;6819;-74
2022/05/02 07:40:32;;;;;;;;;;;;;;;16.99;45.76;100901.28;4983980;28;6804;-74
2022/05/02 07:43:02;;;;;;;;;;;;;;;17.09;45.76;100897.28;4981621;28;7133;-74
2022/05/02 07:45:30;;;;;;;;;;;;;;;17.20;45.49;100895.88;4983677;28;6899;-74
2022/05/02 07:48:03;;;;;;;;;;;;;;;17.28;45.17;100898.69;4984113;28;6803;-74
2022/05/02 07:50:31;;;;;;;;;;;;;;;17.28;44.95;100898.69;4978634;28;6811;-74
2022/05/02 07:52:59;;;;;;;;;;;;;;;17.27;44.91;100903.84;4982583;28;6899;-74
2022/05/02 07:55:28;;;;;;;;;;;;;;;17.26;44.88;100902.94;4962888;28;8462;-74
2022/05/02 07:57:57;;;;;;;;;;;;;;;17.29;44.81;100900.47;4978615;28;7612;-74
2022/05/02 08:00:24;;;;;;;;;;;;;;;17.31;44.66;100903.97;4977257;28;6828;-74
2022/05/02 08:02:50;;;;;;;;;;;;;;;17.29;44.44;100903.06;4985295;28;6824;-74
2022/05/02 08:05:21;;;;;;;;;;;;;;;17.26;44.14;100897.75;4986104;28;7966;-74
2022/05/02 08:07:47;;;;;;;;;;;;;;;17.25;44.29;100895.16;4983798;28;7125;-74
2022/05/02 08:10:27;;;;;;;;;;;;;;;17.25;44.13;100903.78;4999454;28;6811;-74
2022/05/02 08:13:37;;;;;;;;;;;;;;;17.30;44.50;100897.03;4982637;28;7164;-74
2022/05/02 08:16:25;;;;;;;;;;;;;;;17.40;44.39;100899.88;4967453;28;7956;-74
2022/05/02 08:19:29;;;;;;;;;;;;;;;17.54;44.43;100903.72;4984774;28;6816;-74
2022/05/02 08:28:36;;;;;;;;;;;;;;;17.93;43.44;100891.78;4984332;28;7189;-74
2022/05/02 08:31:32;;;;;;;;;;;;;;;18.10;42.79;100891.34;4987330;28;6816;-74
2022/05/02 08:34:40;;;;;;;;;;;;;;;18.23;43.26;100897.72;4978343;28;6985;-74
2022/05/02 08:37:41;;;;;;;;;;;;;;;18.29;42.92;100898.75;4982217;28;6985;-74
2022/05/02 08:40:25;;;;;;;;;;;;;;;18.38;42.92;100885.13;5002706;28;7002;-75
2022/05/02 08:43:43;;;;;;;;;;;;;;;18.47;42.06;100889.63;4978663;28;8427;-75
2022/05/02 08:46:50;;;;;;;;;;;;;;;18.65;41.87;100881.41;4983762;28;6820;-75
2022/05/02 08:49:55;;;;;;;;;;;;;;;18.86;42.12;100886.19;4980417;28;6984;-75
2022/05/02 08:53:08;;;;;;;;;;;;;;;19.15;42.28;100878.16;4963915;28;7246;-75
2022/05/02 08:56:05;;;;;;;;;;;;;;;19.51;40.57;100876.25;4961970;28;7255;-75
2022/05/02 08:59:03;;;;;;;;;;;;;;;19.89;40.38;100874.28;4985685;28;6988;-74
2022/05/02 09:02:13;;;;;;;;;;;;;;;20.38;39.26;100872.53;4967623;28;6820;-74
2022/05/02 09:05:07;;;;;;;;;;;;;;;20.84;38.71;100857.56;4983969;28;6819;-74
2022/05/02 09:08:03;;;;;;;;;;;;;;;21.36;37.61;100862.53;4961586;28;6978;-74
2022/05/02 09:11:48;;;;;;;;;;;;;;;21.86;37.25;100861.28;4983445;28;7076;-74
2022/05/02 09:14:35;;;;;;;;;;;;;;;22.51;36.34;100855.69;4981942;28;6975;-73
2022/05/02 09:17:33;;;;;;;;;;;;;;;22.86;34.92;100856.75;4981287;28;6812;-73
2022/05/02 09:20:37;;;;;;;;;;;;;;;23.21;35.07;100855.97;4983693;28;6911;-73
2022/05/02 09:23:38;;;;;;;;;;;;;;;23.53;34.47;100854.34;4981358;28;6819;-73
2022/05/02 09:26:23;;;;;;;;;;;;;;;23.94;33.92;100845.63;4981853;28;6831;-73
2022/05/02 09:29:44;;;;;;;;;;;;;;;24.40;33.85;100852.59;4982700;28;6903;-73
2022/05/02 09:32:44;;;;;;;;;;;;;;;24.75;32.62;100847.22;4983699;28;6839;-74
2022/05/02 09:35:24;;;;;;;;;;;;;;;24.95;31.96;100847.19;4984396;28;6812;-73
2022/05/02 09:38:26;;;;;;;;;;;;;;;25.09;31.76;100850.59;4981797;28;6816;-73
2022/05/02 09:41:32;;;;;;;;;;;;;;;25.32;31.73;100844.38;4983369;28;6893;-73
2022/05/02 09:51:48;;;;;;;;;;;;;;;26.05;30.61;100827.19;4977788;28;6896;-73
2022/05/02 09:57:22;;;;;;;;;;;;;;;26.69;29.41;100827.41;4982556;28;7062;-73
2022/05/02 10:02:46;;;;;;;;;;;;;;;26.78;29.08;100812.41;4984365;28;7199;-73
2022/05/02 10:05:26;;;;;;;;;;;;;;;26.85;28.88;100814.09;4969094;28;7136;-73
2022/05/02 10:08:04;;;;;;;;;;;;;;;27.01;28.99;100806.88;4978909;28;7189;-74
2022/05/02 10:10:44;;;;;;;;;;;;;;;27.42;28.52;100815.03;4984414;28;6840;-73
2022/05/02 10:13:24;;;;;;;;;;;;;;;27.67;28.19;100804.13;4987368;28;6974;-73
2022/05/02 10:16:10;;;;;;;;;;;;;;;27.88;28.10;100807.28;4984500;28;7951;-73
2022/05/02 10:19:10;;;;;;;;;;;;;;;28.13;27.34;100803.31;4987117;28;6847;-74
2022/05/02 10:22:16;;;;;;;;;;;;;;;28.37;26.80;100800.25;4988588;28;6831;-73
2022/05/02 10:25:19;;;;;;;;;;;;;;;28.38;26.54;100800.22;4987923;28;6835;-73
2022/05/02 10:28:02;;;;;;;;;;;;;;;28.38;26.74;100800.22;4986468;28;6903;-73
2022/05/02 10:30:53;;;;;;;;;;;;;;;28.49;26.58;100794.72;5002942;28;6808;-73
2022/05/02 10:33:34;;;;;;;;;;;;;;;28.53;26.42;100800.81;4982698;28;6907;-73
2022/05/02 10:36:04;;;;;;;;;;;;;;;28.51;26.35;100797.34;4983023;28;6819;-73
2022/05/02 10:38:40;;;;;;;;;;;;;;;28.57;26.41;100807.75;4972612;28;8823;-73
2022/05/02 10:41:15;;;;;;;;;;;;;;;28.59;25.90;100792.78;4984765;28;6816;-73
2022/05/02 10:43:50;;;;;;;;;;;;;;;28.66;26.11;100793.53;4965213;28;6979;-73
2022/05/02 10:46:18;;;;;;;;;;;;;;;28.90;25.92;100796.53;4985608;28;7258;-73
2022/05/02 10:48:58;;;;;;;;;;;;;;;29.04;24.65;100789.19;4986448;28;6895;-73
2022/05/02 10:51:30;;;;;;;;;;;;;;;29.01;25.31;100789.25;4967830;28;7718;-73
2022/05/02 10:54:09;;;;;;;;;;;;;;;28.96;25.34;100786.72;4987933;28;6888;-73
2022/05/02 10:56:45;;;;;;;;;;;;;;;28.95;25.18;100781.50;4968371;28;6820;-73
2022/05/02 10:59:15;;;;;;;;;;;;;;;28.73;24.83;100784.59;4984454;28;8000;-73
2022/05/02 11:02:24;;;;;;;;;;;;;;;28.71;25.13;100778.44;4985376;28;6879;-73
2022/05/02 11:05:14;;;;;;;;;;;;;;;29.01;25.08;100786.59;4988654;28;7014;-73
2022/05/02 11:08:10;;;;;;;;;;;;;;;28.89;24.96;100779.84;4984615;28;6900;-73
2022/05/02 11:10:57;;;;;;;;;;;;;;;28.46;24.95;100770.19;4987133;28;6981;-73
2022/05/02 11:13:50;;;;;;;;;;;;;;;28.20;25.13;100772.47;4985159;28;6819;-73
2022/05/02 11:16:26;;;;;;;;;;;;;;;27.97;25.30;100764.97;4983620;28;6970;-73
2022/05/02 11:22:37;;;;;;;;;;;;;;;28.00;25.75;100764.91;4980243;28;6896;-73
2022/05/02 11:25:19;;;;;;;;;;;;;;;28.27;25.24;100758.28;4986741;28;8058;-73
2022/05/02 11:28:22;;;;;;;;;;;;;;;28.62;25.07;100758.44;4985124;28;6807;-73
2022/05/02 11:31:18;;;;;;;;;;;;;;;29.05;24.66;100754.00;4987411;28;6819;-74
2022/05/02 11:34:02;;;;;;;;;;;;;;;29.36;24.61;100753.22;4987305;28;6812;-74
2022/05/02 11:36:38;;;;;;;;;;;;;;;29.61;24.31;100747.38;4985538;28;6820;-74
2022/05/02 11:39:08;;;;;;;;;;;;;;;29.80;23.70;100744.25;4987142;28;6815;-73
2022/05/02 11:41:47;;;;;;;;;;;;;;;29.94;23.92;100746.50;5002647;28;6908;-73
2022/05/02 11:44:13;;;;;;;;;;;;;;;30.03;23.73;100746.22;4983232;28;6839;-73
2022/05/02 11:47:14;;;;;;;;;;;;;;;29.99;23.61;100747.22;4986341;28;6831;-73
2022/05/02 11:50:07;;;;;;;;;;;;;;;29.48;23.63;100744.19;4972704;28;6848;-73
2022/05/02 11:52:36;;;;;;;;;;;;;;;29.18;23.62;100756.31;4986283;28;6984;-73
2022/05/02 11:55:05;;;;;;;;;;;;;;;28.92;23.93;100749.88;4982395;28;6800;-73
2022/05/02 11:57:50;;;;;;;;;;;;;;;28.71;24.07;100748.59;4987446;28;6828;-74
2022/05/02 12:00:17;;;;;;;;;;;;;;;28.63;24.08;100760.16;4984812;28;6816;-74
2022/05/02 12:02:51;;;;;;;;;;;;;;;28.54;24.67;100749.81;4968951;28;7176;-73
2022/05/02 12:05:20;;;;;;;;;;;;;;;28.55;24.36;100754.19;4984141;28;7194;-74
2022/05/02 12:08:09;;;;;;;;;;;;;;;28.41;24.16;100746.56;4987824;28;6820;-74
2022/05/02 12:10:42;;;;;;;;;;;;;;;28.68;24.69;100744.25;4986621;28;6816;-74
2022/05/02 12:13:12;;;;;;;;;;;;;;;29.29;24.52;100741.09;4968809;28;6914;-74
2022/05/02 12:15:57;;;;;;;;;;;;;;;29.61;24.03;100735.94;4984753;28;6823;-74
2022/05/02 12:18:37;;;;;;;;;;;;;;;29.84;23.91;100745.00;4985330;28;6803;-74
2022/05/02 12:21:07;;;;;;;;;;;;;;;30.23;23.90;100734.28;4980081;28;6996;-73
2022/05/02 12:23:39;;;;;;;;;;;;;;;30.81;23.45;100730.81;4983931;28;6807;-73
2022/05/02 12:26:19;;;;;;;;;;;;;;;31.36;22.34;100735.22;4962025;28;7304;-73
2022/05/02 12:28:52;;;;;;;;;;;;;;;31.68;21.90;100725.31;4983694;28;6898;-73
2022/05/02 12:31:28;;;;;;;;;;;;;;;31.83;22.21;100728.34;4969079;28;6887;-73
2022/05/02 12:34:05;;;;;;;;;;;;;;;31.94;21.93;100720.00;4983084;28;6851;-73
2022/05/02 12:36:43;;;;;;;;;;;;;;;31.76;21.49;100726.78;4986186;28;6907;-73
2022/05/02 12:39:18;;;;;;;;;;;;;;;31.42;21.67;100720.88;4980615;28;7951;-73
2022/05/02 12:41:50;;;;;;;;;;;;;;;31.22;21.95;100726.84;4981922;28;6832;-73
2022/05/02 12:44:18;;;;;;;;;;;;;;;31.19;21.48;100717.22;4985729;28;6961;-73
2022/05/02 12:46:47;;;;;;;;;;;;;;;31.38;21.93;100712.19;4984995;28;6800;-74
2022/05/02 12:49:24;;;;;;;;;;;;;;;31.57;21.82;100712.44;4984147;28;6994;-73
2022/05/02 12:51:54;;;;;;;;;;;;;;;31.47;21.98;100710.13;4983308;28;6799;-74
2022/05/02 12:54:26;;;;;;;;;;;;;;;31.30;21.65;100706.31;4994953;28;6849;-74
2022/05/02 13:02:50;;;;;;;;;;;;;;;31.56;21.12;100694.81;4983685;28;7384;-74
2022/05/02 13:05:21;;;;;;;;;;;;;;;31.80;21.62;100696.63;5000043;28;6804;-74
2022/05/02 13:07:53;;;;;;;;;;;;;;;31.82;21.24;100685.09;4997720;28;7212;-74
2022/05/02 13:10:25;;;;;;;;;;;;;;;31.48;21.06;100690.69;4979081;28;6807;-74
2022/05/02 13:13:13;;;;;;;;;;;;;;;31.22;20.96;100688.00;4982082;28;7001;-74
2022/05/02 13:15:52;;;;;;;;;;;;;;;30.88;21.04;100687.34;4993382;28;7217;-74
2022/05/02 13:18:21;;;;;;;;;;;;;;;30.45;22.01;100688.69;4984626;28;6808;-74
2022/05/02 13:21:12;;;;;;;;;;;;;;;30.21;21.95;100683.22;4968155;28;6800;-74
2022/05/02 13:23:40;;;;;;;;;;;;;;;30.11;22.60;100681.75;4985092;28;6892;-74
2022/05/02 13:26:09;;;;;;;;;;;;;;;30.06;22.54;100682.78;4974608;28;7643;-74
2022/05/02 13:29:07;;;;;;;;;;;;;;;30.00;22.55;100677.63;4976541;28;6977;-74
2022/05/02 13:31:50;;;;;;;;;;;;;;;29.92;22.31;100675.22;4966832;28;7283;-74
2022/05/02 13:34:52;;;;;;;;;;;;;;;29.82;22.17;100670.22;4982807;28;6820;-74
2022/05/02 13:37:43;;;;;;;;;;;;;;;29.63;22.71;100662.81;4973492;28;6827;-74
2022/05/02 13:40:15;;;;;;;;;;;;;;;29.69;23.00;100657.38;4969549;28;6892;-74
2022/05/02 13:43:04;;;;;;;;;;;;;;;29.89;22.27;100654.16;4981125;28;8393;-74
2022/05/02 13:45:46;;;;;;;;;;;;;;;30.13;22.75;100658.78;4983628;28;7243;-74
2022/05/02 13:48:40;;;;;;;;;;;;;;;30.28;21.72;100650.41;4985490;28;6832;-74
2022/05/02 13:51:17;;;;;;;;;;;;;;;30.49;22.36;100653.28;4979737;28;7437;-74
2022/05/02 13:54:26;;;;;;;;;;;;;;;30.49;21.47;100648.00;4981546;28;6891;-74
2022/05/02 13:57:27;;;;;;;;;;;;;;;30.26;22.23;100644.31;4972367;28;6811;-74
2022/05/02 14:01:21;;;;;;;;;;;;;;;30.13;22.17;100635.00;4978354;28;6832;-74
2022/05/02 14:03:53;;;;;;;;;;;;;;;30.01;22.06;100641.50;4983696;28;6900;-74
2022/05/02 14:06:24;;;;;;;;;;;;;;;29.82;22.33;100635.88;4967781;28;6812;-74
2022/05/02 14:08:50;;;;;;;;;;;;;;;29.39;22.54;100634.38;4977680;28;6816;-74
2022/05/02 14:11:18;;;;;;;;;;;;;;;28.79;22.51;100644.66;4982503;28;7290;-74
2022/05/02 14:13:49;;;;;;;;;;;;;;;28.05;23.22;100644.53;4978598;28;6896;-74
2022/05/02 14:16:17;;;;;;;;;;;;;;;27.38;23.67;100645.81;4979541;28;6891;-74
2022/05/02 14:19:00;;;;;;;;;;;;;;;27.05;24.00;100642.88;4977374;28;7157;-74